sensor_id;sensor_type;location;lat;lon;timestamp;P1;durP1;ratioP1;P2;durP2;ratioP2
84284;SDS011;74441;49.470;11.032;2023-12-20T00:01:14;4.38;;;3.00;;
84284;SDS011;74441;49.470;11.032;2023-12-20T00:03:39;4.80;;;3.60;;
84284;SDS011;74441;49.470;11.032;2023-12-20T00:06:05;4.55;;;3.55;;
84284;SDS011;74441;49.470;11.032;2023-12-20T00:08:30;5.72;;;3.13;;
84284;SDS011;74441;49.470;11.032;2023-12-20T00:10:55;3.88;;;2.88;;
84284;SDS011;74441;49.470;11.032;2023-12-20T00:13:21;4.35;;;2.63;;
84284;SDS011;74441;49.470;11.032;2023-12-20T00:15:46;3.27;;;2.50;;
84284;SDS011;74441;49.470;11.032;2023-12-20T00:18:11;3.47;;;2.70;;
84284;SDS011;74441;49.470;11.032;2023-12-20T00:20:37;4.60;;;2.93;;
84284;SDS011;74441;49.470;11.032;2023-12-20T00:23:02;4.10;;;2.65;;
84284;SDS011;74441;49.470;11.032;2023-12-20T00:25:28;3.53;;;2.85;;
84284;SDS011;74441;49.470;11.032;2023-12-20T00:27:53;3.50;;;2.40;;
84284;SDS011;74441;49.470;11.032;2023-12-20T00:30:18;3.30;;;2.60;;
84284;SDS011;74441;49.470;11.032;2023-12-20T00:32:44;3.95;;;2.55;;
84284;SDS011;74441;49.470;11.032;2023-12-20T00:35:14;4.07;;;3.08;;
84284;SDS011;74441;49.470;11.032;2023-12-20T00:37:40;3.65;;;2.60;;
84284;SDS011;74441;49.470;11.032;2023-12-20T00:40:06;3.97;;;2.63;;
84284;SDS011;74441;49.470;11.032;2023-12-20T00:42:32;5.40;;;2.80;;
84284;SDS011;74441;49.470;11.032;2023-12-20T00:44:58;3.45;;;2.85;;
84284;SDS011;74441;49.470;11.032;2023-12-20T00:47:23;4.82;;;2.80;;
84284;SDS011;74441;49.470;11.032;2023-12-20T00:49:49;3.33;;;2.70;;
84284;SDS011;74441;49.470;11.032;2023-12-20T00:52:14;4.20;;;3.00;;
84284;SDS011;74441;49.470;11.032;2023-12-20T00:54:39;3.10;;;2.55;;
84284;SDS011;74441;49.470;11.032;2023-12-20T00:57:05;3.60;;;2.50;;
84284;SDS011;74441;49.470;11.032;2023-12-20T00:59:30;3.73;;;2.53;;
84284;SDS011;74441;49.470;11.032;2023-12-20T01:01:55;4.38;;;2.47;;
84284;SDS011;74441;49.470;11.032;2023-12-20T01:04:21;3.13;;;2.53;;
84284;SDS011;74441;49.470;11.032;2023-12-20T01:06:46;3.20;;;2.33;;
84284;SDS011;74441;49.470;11.032;2023-12-20T01:09:11;2.73;;;2.20;;
84284;SDS011;74441;49.470;11.032;2023-12-20T01:11:36;4.07;;;2.30;;
84284;SDS011;74441;49.470;11.032;2023-12-20T01:14:02;4.00;;;2.10;;
84284;SDS011;74441;49.470;11.032;2023-12-20T01:16:27;2.90;;;2.30;;
84284;SDS011;74441;49.470;11.032;2023-12-20T01:18:52;3.40;;;2.20;;
84284;SDS011;74441;49.470;11.032;2023-12-20T01:21:18;3.20;;;2.00;;
84284;SDS011;74441;49.470;11.032;2023-12-20T01:23:43;3.00;;;2.00;;
84284;SDS011;74441;49.470;11.032;2023-12-20T01:26:08;4.40;;;2.00;;
84284;SDS011;74441;49.470;11.032;2023-12-20T01:28:34;2.10;;;1.80;;
84284;SDS011;74441;49.470;11.032;2023-12-20T01:30:59;3.20;;;1.80;;
84284;SDS011;74441;49.470;11.032;2023-12-20T01:33:24;2.37;;;1.90;;
84284;SDS011;74441;49.470;11.032;2023-12-20T01:35:49;2.70;;;1.90;;
84284;SDS011;74441;49.470;11.032;2023-12-20T01:38:15;2.00;;;1.73;;
84284;SDS011;74441;49.470;11.032;2023-12-20T01:40:43;1.90;;;1.70;;
84284;SDS011;74441;49.470;11.032;2023-12-20T01:43:08;3.63;;;1.70;;
84284;SDS011;74441;49.470;11.032;2023-12-20T01:45:34;2.25;;;1.55;;
84284;SDS011;74441;49.470;11.032;2023-12-20T01:48:00;2.50;;;1.50;;
84284;SDS011;74441;49.470;11.032;2023-12-20T01:50:28;2.35;;;1.83;;
84284;SDS011;74441;49.470;11.032;2023-12-20T01:52:53;2.67;;;1.80;;
84284;SDS011;74441;49.470;11.032;2023-12-20T01:55:22;2.47;;;1.67;;
84284;SDS011;74441;49.470;11.032;2023-12-20T01:57:48;1.90;;;1.52;;
84284;SDS011;74441;49.470;11.032;2023-12-20T02:00:13;2.30;;;1.70;;
84284;SDS011;74441;49.470;11.032;2023-12-20T02:02:40;2.55;;;1.77;;
84284;SDS011;74441;49.470;11.032;2023-12-20T02:05:05;2.08;;;1.60;;
84284;SDS011;74441;49.470;11.032;2023-12-20T02:07:31;1.88;;;1.50;;
84284;SDS011;74441;49.470;11.032;2023-12-20T02:09:57;1.73;;;1.52;;
84284;SDS011;74441;49.470;11.032;2023-12-20T02:12:22;1.80;;;1.45;;
84284;SDS011;74441;49.470;11.032;2023-12-20T02:14:48;1.50;;;1.30;;
84284;SDS011;74441;49.470;11.032;2023-12-20T02:17:14;1.83;;;1.58;;
84284;SDS011;74441;49.470;11.032;2023-12-20T02:19:39;1.38;;;1.27;;
84284;SDS011;74441;49.470;11.032;2023-12-20T02:22:06;1.50;;;1.30;;
84284;SDS011;74441;49.470;11.032;2023-12-20T02:24:32;1.42;;;1.02;;
84284;SDS011;74441;49.470;11.032;2023-12-20T02:26:58;1.63;;;1.30;;
84284;SDS011;74441;49.470;11.032;2023-12-20T02:29:23;1.48;;;1.30;;
84284;SDS011;74441;49.470;11.032;2023-12-20T02:31:48;1.60;;;1.00;;
84284;SDS011;74441;49.470;11.032;2023-12-20T02:34:14;1.10;;;0.97;;
84284;SDS011;74441;49.470;11.032;2023-12-20T02:36:39;1.73;;;1.23;;
84284;SDS011;74441;49.470;11.032;2023-12-20T02:39:04;1.20;;;1.10;;
84284;SDS011;74441;49.470;11.032;2023-12-20T02:41:30;1.48;;;1.33;;
84284;SDS011;74441;49.470;11.032;2023-12-20T02:43:55;1.93;;;1.30;;
84284;SDS011;74441;49.470;11.032;2023-12-20T02:46:20;1.37;;;1.27;;
84284;SDS011;74441;49.470;11.032;2023-12-20T02:48:45;1.57;;;1.20;;
84284;SDS011;74441;49.470;11.032;2023-12-20T02:51:12;1.08;;;1.00;;
84284;SDS011;74441;49.470;11.032;2023-12-20T02:53:37;1.45;;;1.20;;
84284;SDS011;74441;49.470;11.032;2023-12-20T02:56:02;1.50;;;1.30;;
84284;SDS011;74441;49.470;11.032;2023-12-20T02:58:28;1.23;;;1.00;;
84284;SDS011;74441;49.470;11.032;2023-12-20T03:00:53;1.57;;;1.20;;
84284;SDS011;74441;49.470;11.032;2023-12-20T03:03:19;1.15;;;1.05;;
84284;SDS011;74441;49.470;11.032;2023-12-20T03:05:44;1.20;;;1.10;;
84284;SDS011;74441;49.470;11.032;2023-12-20T03:08:10;0.80;;;0.80;;
84284;SDS011;74441;49.470;11.032;2023-12-20T03:10:36;1.52;;;1.25;;
84284;SDS011;74441;49.470;11.032;2023-12-20T03:13:01;1.80;;;1.20;;
84284;SDS011;74441;49.470;11.032;2023-12-20T03:15:26;1.30;;;1.10;;
84284;SDS011;74441;49.470;11.032;2023-12-20T03:17:51;1.15;;;1.05;;
84284;SDS011;74441;49.470;11.032;2023-12-20T03:20:17;1.10;;;1.00;;
84284;SDS011;74441;49.470;11.032;2023-12-20T03:22:42;0.80;;;0.80;;
84284;SDS011;74441;49.470;11.032;2023-12-20T03:25:07;1.83;;;0.90;;
84284;SDS011;74441;49.470;11.032;2023-12-20T03:27:33;0.73;;;0.63;;
84284;SDS011;74441;49.470;11.032;2023-12-20T03:29:58;1.70;;;0.98;;
84284;SDS011;74441;49.470;11.032;2023-12-20T03:32:23;1.30;;;1.00;;
84284;SDS011;74441;49.470;11.032;2023-12-20T03:34:49;1.23;;;1.00;;
84284;SDS011;74441;49.470;11.032;2023-12-20T03:37:14;1.20;;;0.93;;
84284;SDS011;74441;49.470;11.032;2023-12-20T03:39:39;1.07;;;0.97;;
84284;SDS011;74441;49.470;11.032;2023-12-20T03:42:05;1.70;;;1.40;;
84284;SDS011;74441;49.470;11.032;2023-12-20T03:44:30;2.60;;;1.70;;
84284;SDS011;74441;49.470;11.032;2023-12-20T03:46:55;1.90;;;1.00;;
84284;SDS011;74441;49.470;11.032;2023-12-20T03:49:21;0.95;;;0.88;;
84284;SDS011;74441;49.470;11.032;2023-12-20T03:51:46;1.20;;;1.10;;
84284;SDS011;74441;49.470;11.032;2023-12-20T03:54:12;1.87;;;1.10;;
84284;SDS011;74441;49.470;11.032;2023-12-20T03:56:37;1.15;;;1.05;;
84284;SDS011;74441;49.470;11.032;2023-12-20T03:59:03;1.00;;;0.90;;
84284;SDS011;74441;49.470;11.032;2023-12-20T04:01:28;1.33;;;1.13;;
84284;SDS011;74441;49.470;11.032;2023-12-20T04:03:53;1.13;;;1.00;;
84284;SDS011;74441;49.470;11.032;2023-12-20T04:06:19;0.73;;;0.60;;
84284;SDS011;74441;49.470;11.032;2023-12-20T04:08:44;1.30;;;1.20;;
84284;SDS011;74441;49.470;11.032;2023-12-20T04:11:10;1.67;;;1.17;;
84284;SDS011;74441;49.470;11.032;2023-12-20T04:13:35;1.03;;;1.00;;
84284;SDS011;74441;49.470;11.032;2023-12-20T04:16:00;1.20;;;1.10;;
84284;SDS011;74441;49.470;11.032;2023-12-20T04:18:26;1.00;;;0.90;;
84284;SDS011;74441;49.470;11.032;2023-12-20T04:20:53;1.10;;;0.93;;
84284;SDS011;74441;49.470;11.032;2023-12-20T04:23:18;1.08;;;0.98;;
84284;SDS011;74441;49.470;11.032;2023-12-20T04:25:44;1.38;;;0.93;;
84284;SDS011;74441;49.470;11.032;2023-12-20T04:28:09;1.43;;;1.10;;
84284;SDS011;74441;49.470;11.032;2023-12-20T04:30:35;1.03;;;1.03;;
84284;SDS011;74441;49.470;11.032;2023-12-20T04:33:00;1.17;;;1.07;;
84284;SDS011;74441;49.470;11.032;2023-12-20T04:35:25;1.30;;;1.20;;
84284;SDS011;74441;49.470;11.032;2023-12-20T04:37:51;1.30;;;1.15;;
84284;SDS011;74441;49.470;11.032;2023-12-20T04:40:16;1.20;;;1.10;;
84284;SDS011;74441;49.470;11.032;2023-12-20T04:42:41;2.42;;;1.30;;
84284;SDS011;74441;49.470;11.032;2023-12-20T04:45:07;1.37;;;1.10;;
84284;SDS011;74441;49.470;11.032;2023-12-20T04:47:32;1.40;;;1.08;;
84284;SDS011;74441;49.470;11.032;2023-12-20T04:49:58;1.40;;;1.20;;
84284;SDS011;74441;49.470;11.032;2023-12-20T04:52:23;0.98;;;0.88;;
84284;SDS011;74441;49.470;11.032;2023-12-20T04:54:49;1.10;;;0.90;;
84284;SDS011;74441;49.470;11.032;2023-12-20T04:57:14;1.40;;;1.30;;
84284;SDS011;74441;49.470;11.032;2023-12-20T04:59:39;1.30;;;1.02;;
84284;SDS011;74441;49.470;11.032;2023-12-20T05:02:06;0.98;;;0.95;;
84284;SDS011;74441;49.470;11.032;2023-12-20T05:04:31;1.20;;;1.10;;
84284;SDS011;74441;49.470;11.032;2023-12-20T05:06:56;1.10;;;1.00;;
84284;SDS011;74441;49.470;11.032;2023-12-20T05:09:22;1.93;;;1.50;;
84284;SDS011;74441;49.470;11.032;2023-12-20T05:11:47;1.13;;;1.02;;
84284;SDS011;74441;49.470;11.032;2023-12-20T05:14:12;1.50;;;1.40;;
84284;SDS011;74441;49.470;11.032;2023-12-20T05:16:37;0.75;;;0.75;;
84284;SDS011;74441;49.470;11.032;2023-12-20T05:19:03;1.80;;;0.93;;
84284;SDS011;74441;49.470;11.032;2023-12-20T05:21:31;1.35;;;1.13;;
84284;SDS011;74441;49.470;11.032;2023-12-20T05:23:57;1.00;;;1.00;;
84284;SDS011;74441;49.470;11.032;2023-12-20T05:26:22;1.40;;;1.30;;
84284;SDS011;74441;49.470;11.032;2023-12-20T05:28:47;2.60;;;1.27;;
84284;SDS011;74441;49.470;11.032;2023-12-20T05:31:12;1.43;;;1.07;;
84284;SDS011;74441;49.470;11.032;2023-12-20T05:33:38;1.20;;;1.10;;
84284;SDS011;74441;49.470;11.032;2023-12-20T05:36:03;1.33;;;1.23;;
84284;SDS011;74441;49.470;11.032;2023-12-20T05:38:29;1.25;;;1.08;;
84284;SDS011;74441;49.470;11.032;2023-12-20T05:40:54;1.77;;;1.40;;
84284;SDS011;74441;49.470;11.032;2023-12-20T05:43:19;1.45;;;1.10;;
84284;SDS011;74441;49.470;11.032;2023-12-20T05:45:45;1.53;;;1.30;;
84284;SDS011;74441;49.470;11.032;2023-12-20T05:48:10;1.15;;;0.93;;
84284;SDS011;74441;49.470;11.032;2023-12-20T05:50:35;0.97;;;0.90;;
84284;SDS011;74441;49.470;11.032;2023-12-20T05:53:01;1.40;;;1.10;;
84284;SDS011;74441;49.470;11.032;2023-12-20T05:55:27;1.17;;;1.02;;
84284;SDS011;74441;49.470;11.032;2023-12-20T05:57:52;0.83;;;0.83;;
84284;SDS011;74441;49.470;11.032;2023-12-20T06:00:17;1.53;;;1.23;;
84284;SDS011;74441;49.470;11.032;2023-12-20T06:02:43;1.10;;;1.00;;
84284;SDS011;74441;49.470;11.032;2023-12-20T06:05:08;1.20;;;1.10;;
84284;SDS011;74441;49.470;11.032;2023-12-20T06:07:33;2.10;;;1.33;;
84284;SDS011;74441;49.470;11.032;2023-12-20T06:09:59;2.13;;;1.53;;
84284;SDS011;74441;49.470;11.032;2023-12-20T06:12:25;1.30;;;1.17;;
84284;SDS011;74441;49.470;11.032;2023-12-20T06:14:52;1.45;;;1.17;;
84284;SDS011;74441;49.470;11.032;2023-12-20T06:17:17;1.33;;;1.13;;
84284;SDS011;74441;49.470;11.032;2023-12-20T06:19:43;1.43;;;1.10;;
84284;SDS011;74441;49.470;11.032;2023-12-20T06:22:09;1.23;;;1.10;;
84284;SDS011;74441;49.470;11.032;2023-12-20T06:24:35;1.65;;;1.23;;
84284;SDS011;74441;49.470;11.032;2023-12-20T06:27:01;1.40;;;1.20;;
84284;SDS011;74441;49.470;11.032;2023-12-20T06:29:26;2.13;;;1.40;;
84284;SDS011;74441;49.470;11.032;2023-12-20T06:31:51;2.43;;;1.47;;
84284;SDS011;74441;49.470;11.032;2023-12-20T06:34:17;1.70;;;1.43;;
84284;SDS011;74441;49.470;11.032;2023-12-20T06:36:42;1.98;;;1.77;;
84284;SDS011;74441;49.470;11.032;2023-12-20T06:39:07;2.30;;;1.27;;
84284;SDS011;74441;49.470;11.032;2023-12-20T06:41:33;1.60;;;1.38;;
84284;SDS011;74441;49.470;11.032;2023-12-20T06:43:59;2.07;;;1.50;;
84284;SDS011;74441;49.470;11.032;2023-12-20T06:46:24;2.00;;;1.47;;
84284;SDS011;74441;49.470;11.032;2023-12-20T06:48:50;2.38;;;1.60;;
84284;SDS011;74441;49.470;11.032;2023-12-20T06:51:15;2.05;;;1.10;;
84284;SDS011;74441;49.470;11.032;2023-12-20T06:53:41;2.17;;;1.52;;
84284;SDS011;74441;49.470;11.032;2023-12-20T06:56:07;1.67;;;1.48;;
84284;SDS011;74441;49.470;11.032;2023-12-20T06:58:32;2.03;;;1.63;;
84284;SDS011;74441;49.470;11.032;2023-12-20T07:00:58;1.48;;;1.35;;
84284;SDS011;74441;49.470;11.032;2023-12-20T07:03:23;1.63;;;1.43;;
84284;SDS011;74441;49.470;11.032;2023-12-20T07:05:48;2.80;;;1.80;;
84284;SDS011;74441;49.470;11.032;2023-12-20T07:08:13;2.53;;;1.70;;
84284;SDS011;74441;49.470;11.032;2023-12-20T07:10:40;2.58;;;1.95;;
84284;SDS011;74441;49.470;11.032;2023-12-20T07:13:05;2.35;;;2.05;;
84284;SDS011;74441;49.470;11.032;2023-12-20T07:15:31;3.30;;;2.42;;
84284;SDS011;74441;49.470;11.032;2023-12-20T07:17:57;2.38;;;1.77;;
84284;SDS011;74441;49.470;11.032;2023-12-20T07:20:22;2.20;;;1.80;;
84284;SDS011;74441;49.470;11.032;2023-12-20T07:22:47;2.37;;;2.00;;
84284;SDS011;74441;49.470;11.032;2023-12-20T07:25:12;2.35;;;1.75;;
84284;SDS011;74441;49.470;11.032;2023-12-20T07:27:38;2.00;;;1.53;;
84284;SDS011;74441;49.470;11.032;2023-12-20T07:30:03;1.93;;;1.67;;
84284;SDS011;74441;49.470;11.032;2023-12-20T07:32:29;2.53;;;1.77;;
84284;SDS011;74441;49.470;11.032;2023-12-20T07:34:54;2.63;;;1.63;;
84284;SDS011;74441;49.470;11.032;2023-12-20T07:37:19;1.50;;;1.40;;
84284;SDS011;74441;49.470;11.032;2023-12-20T07:39:45;2.13;;;1.70;;
84284;SDS011;74441;49.470;11.032;2023-12-20T07:42:11;1.55;;;1.40;;
84284;SDS011;74441;49.470;11.032;2023-12-20T07:44:36;2.00;;;1.80;;
84284;SDS011;74441;49.470;11.032;2023-12-20T07:47:02;2.73;;;1.87;;
84284;SDS011;74441;49.470;11.032;2023-12-20T07:49:27;2.13;;;1.67;;
84284;SDS011;74441;49.470;11.032;2023-12-20T07:51:52;2.85;;;1.83;;
84284;SDS011;74441;49.470;11.032;2023-12-20T07:54:18;2.28;;;1.67;;
84284;SDS011;74441;49.470;11.032;2023-12-20T07:56:43;2.90;;;2.10;;
84284;SDS011;74441;49.470;11.032;2023-12-20T07:59:08;2.27;;;1.73;;
84284;SDS011;74441;49.470;11.032;2023-12-20T08:01:34;2.58;;;2.00;;
84284;SDS011;74441;49.470;11.032;2023-12-20T08:03:59;3.27;;;2.00;;
84284;SDS011;74441;49.470;11.032;2023-12-20T08:06:25;2.50;;;1.85;;
84284;SDS011;74441;49.470;11.032;2023-12-20T08:08:50;2.10;;;1.83;;
84284;SDS011;74441;49.470;11.032;2023-12-20T08:11:15;3.10;;;1.97;;
84284;SDS011;74441;49.470;11.032;2023-12-20T08:13:41;2.38;;;1.98;;
84284;SDS011;74441;49.470;11.032;2023-12-20T08:16:06;1.90;;;1.70;;
84284;SDS011;74441;49.470;11.032;2023-12-20T08:18:31;2.13;;;1.63;;
84284;SDS011;74441;49.470;11.032;2023-12-20T08:20:57;2.30;;;2.00;;
84284;SDS011;74441;49.470;11.032;2023-12-20T08:23:22;2.03;;;1.70;;
84284;SDS011;74441;49.470;11.032;2023-12-20T08:25:47;2.35;;;2.03;;
84284;SDS011;74441;49.470;11.032;2023-12-20T08:28:14;2.10;;;1.75;;
84284;SDS011;74441;49.470;11.032;2023-12-20T08:30:39;2.73;;;1.70;;
84284;SDS011;74441;49.470;11.032;2023-12-20T08:33:05;2.60;;;1.92;;
84284;SDS011;74441;49.470;11.032;2023-12-20T08:35:36;2.75;;;2.20;;
84284;SDS011;74441;49.470;11.032;2023-12-20T08:38:01;1.70;;;1.60;;
84284;SDS011;74441;49.470;11.032;2023-12-20T08:40:26;2.23;;;1.73;;
84284;SDS011;74441;49.470;11.032;2023-12-20T08:42:52;2.70;;;1.87;;
84284;SDS011;74441;49.470;11.032;2023-12-20T08:45:17;2.65;;;2.08;;
84284;SDS011;74441;49.470;11.032;2023-12-20T08:47:42;1.98;;;1.52;;
84284;SDS011;74441;49.470;11.032;2023-12-20T08:50:10;2.42;;;1.90;;
84284;SDS011;74441;49.470;11.032;2023-12-20T08:52:35;2.20;;;1.80;;
84284;SDS011;74441;49.470;11.032;2023-12-20T08:55:01;2.40;;;1.88;;
84284;SDS011;74441;49.470;11.032;2023-12-20T08:57:26;2.33;;;1.80;;
84284;SDS011;74441;49.470;11.032;2023-12-20T08:59:51;3.63;;;1.97;;
84284;SDS011;74441;49.470;11.032;2023-12-20T09:02:17;2.53;;;1.73;;
84284;SDS011;74441;49.470;11.032;2023-12-20T09:04:42;2.30;;;1.90;;
84284;SDS011;74441;49.470;11.032;2023-12-20T09:07:23;2.47;;;1.50;;
84284;SDS011;74441;49.470;11.032;2023-12-20T09:09:52;3.95;;;1.90;;
84284;SDS011;74441;49.470;11.032;2023-12-20T09:12:18;2.72;;;1.80;;
84284;SDS011;74441;49.470;11.032;2023-12-20T09:14:44;3.22;;;1.85;;
84284;SDS011;74441;49.470;11.032;2023-12-20T09:17:10;3.30;;;1.92;;
84284;SDS011;74441;49.470;11.032;2023-12-20T09:19:37;2.00;;;1.60;;
84284;SDS011;74441;49.470;11.032;2023-12-20T09:22:02;3.17;;;1.80;;
84284;SDS011;74441;49.470;11.032;2023-12-20T09:24:28;2.38;;;1.70;;
84284;SDS011;74441;49.470;11.032;2023-12-20T09:26:53;3.33;;;1.93;;
84284;SDS011;74441;49.470;11.032;2023-12-20T09:29:19;2.57;;;1.90;;
84284;SDS011;74441;49.470;11.032;2023-12-20T09:31:44;2.85;;;2.10;;
84284;SDS011;74441;49.470;11.032;2023-12-20T09:34:11;3.05;;;2.10;;
84284;SDS011;74441;49.470;11.032;2023-12-20T09:36:36;2.70;;;2.00;;
84284;SDS011;74441;49.470;11.032;2023-12-20T09:39:03;3.50;;;1.85;;
84284;SDS011;74441;49.470;11.032;2023-12-20T09:41:30;2.70;;;1.80;;
84284;SDS011;74441;49.470;11.032;2023-12-20T09:43:57;2.75;;;1.83;;
84284;SDS011;74441;49.470;11.032;2023-12-20T09:46:24;4.00;;;2.20;;
84284;SDS011;74441;49.470;11.032;2023-12-20T09:48:50;2.28;;;1.67;;
84284;SDS011;74441;49.470;11.032;2023-12-20T09:51:16;3.65;;;1.65;;
84284;SDS011;74441;49.470;11.032;2023-12-20T09:53:41;2.33;;;1.40;;
84284;SDS011;74441;49.470;11.032;2023-12-20T09:56:08;3.15;;;1.67;;
84284;SDS011;74441;49.470;11.032;2023-12-20T09:58:35;2.70;;;1.57;;
84284;SDS011;74441;49.470;11.032;2023-12-20T10:01:02;2.83;;;1.77;;
84284;SDS011;74441;49.470;11.032;2023-12-20T10:03:28;3.60;;;1.60;;
84284;SDS011;74441;49.470;11.032;2023-12-20T10:05:54;4.35;;;2.13;;
84284;SDS011;74441;49.470;11.032;2023-12-20T10:08:22;3.30;;;2.00;;
84284;SDS011;74441;49.470;11.032;2023-12-20T10:10:49;2.63;;;1.60;;
84284;SDS011;74441;49.470;11.032;2023-12-20T10:13:14;2.65;;;1.60;;
84284;SDS011;74441;49.470;11.032;2023-12-20T10:15:40;3.20;;;2.15;;
84284;SDS011;74441;49.470;11.032;2023-12-20T10:18:06;2.63;;;1.75;;
84284;SDS011;74441;49.470;11.032;2023-12-20T10:20:31;2.40;;;1.73;;
84284;SDS011;74441;49.470;11.032;2023-12-20T10:22:57;2.35;;;1.60;;
84284;SDS011;74441;49.470;11.032;2023-12-20T10:25:24;2.42;;;1.75;;
84284;SDS011;74441;49.470;11.032;2023-12-20T10:27:50;3.40;;;2.08;;
84284;SDS011;74441;49.470;11.032;2023-12-20T10:30:16;2.80;;;1.50;;
84284;SDS011;74441;49.470;11.032;2023-12-20T10:32:41;3.20;;;1.50;;
84284;SDS011;74441;49.470;11.032;2023-12-20T10:35:07;2.60;;;1.80;;
84284;SDS011;74441;49.470;11.032;2023-12-20T10:37:37;2.88;;;1.60;;
84284;SDS011;74441;49.470;11.032;2023-12-20T10:40:03;3.50;;;2.05;;
84284;SDS011;74441;49.470;11.032;2023-12-20T10:42:32;3.63;;;1.80;;
84284;SDS011;74441;49.470;11.032;2023-12-20T10:45:01;5.82;;;2.60;;
84284;SDS011;74441;49.470;11.032;2023-12-20T10:47:26;2.80;;;1.58;;
84284;SDS011;74441;49.470;11.032;2023-12-20T10:49:52;2.60;;;1.92;;
84284;SDS011;74441;49.470;11.032;2023-12-20T10:52:18;3.42;;;1.80;;
84284;SDS011;74441;49.470;11.032;2023-12-20T10:54:45;3.50;;;1.60;;
84284;SDS011;74441;49.470;11.032;2023-12-20T10:57:11;3.05;;;1.73;;
84284;SDS011;74441;49.470;11.032;2023-12-20T10:59:37;4.32;;;2.50;;
84284;SDS011;74441;49.470;11.032;2023-12-20T11:02:03;4.93;;;2.67;;
84284;SDS011;74441;49.470;11.032;2023-12-20T11:07:21;7.32;;;2.88;;
84284;SDS011;74441;49.470;11.032;2023-12-20T11:09:55;4.22;;;2.17;;
84284;SDS011;74441;49.470;11.032;2023-12-20T11:12:36;5.82;;;2.63;;
84284;SDS011;74441;49.470;11.032;2023-12-20T11:15:06;4.88;;;2.63;;
84284;SDS011;74441;49.470;11.032;2023-12-20T11:17:31;4.80;;;2.85;;
84284;SDS011;74441;49.470;11.032;2023-12-20T11:22:22;4.70;;;2.20;;
84284;SDS011;74441;49.470;11.032;2023-12-20T11:24:50;4.40;;;2.22;;
84284;SDS011;74441;49.470;11.032;2023-12-20T11:27:15;6.97;;;2.97;;
84284;SDS011;74441;49.470;11.032;2023-12-20T11:29:40;4.00;;;1.93;;
84284;SDS011;74441;49.470;11.032;2023-12-20T11:34:46;3.72;;;2.20;;
84284;SDS011;74441;49.470;11.032;2023-12-20T11:37:12;3.87;;;2.30;;
84284;SDS011;74441;49.470;11.032;2023-12-20T11:39:38;4.82;;;2.47;;
84284;SDS011;74441;49.470;11.032;2023-12-20T11:42:06;4.73;;;2.63;;
84284;SDS011;74441;49.470;11.032;2023-12-20T11:44:32;3.90;;;2.17;;
84284;SDS011;74441;49.470;11.032;2023-12-20T11:46:58;33.90;;;17.55;;
84284;SDS011;74441;49.470;11.032;2023-12-20T11:49:24;34.92;;;18.60;;
84284;SDS011;74441;49.470;11.032;2023-12-20T11:51:50;38.38;;;18.90;;
84284;SDS011;74441;49.470;11.032;2023-12-20T11:54:15;33.40;;;18.23;;
84284;SDS011;74441;49.470;11.032;2023-12-20T11:56:41;36.88;;;18.13;;
84284;SDS011;74441;49.470;11.032;2023-12-20T11:59:07;32.78;;;18.35;;
84284;SDS011;74441;49.470;11.032;2023-12-20T12:01:33;35.15;;;17.63;;
84284;SDS011;74441;49.470;11.032;2023-12-20T12:04:02;30.15;;;16.50;;
84284;SDS011;74441;49.470;11.032;2023-12-20T12:06:31;4.85;;;2.92;;
84284;SDS011;74441;49.470;11.032;2023-12-20T12:08:56;4.82;;;2.55;;
84284;SDS011;74441;49.470;11.032;2023-12-20T12:11:22;4.27;;;2.20;;
84284;SDS011;74441;49.470;11.032;2023-12-20T12:13:48;4.50;;;2.33;;
84284;SDS011;74441;49.470;11.032;2023-12-20T12:16:16;4.25;;;2.40;;
84284;SDS011;74441;49.470;11.032;2023-12-20T12:18:43;3.38;;;2.30;;
84284;SDS011;74441;49.470;11.032;2023-12-20T12:21:09;4.75;;;2.50;;
84284;SDS011;74441;49.470;11.032;2023-12-20T12:23:34;4.28;;;2.22;;
84284;SDS011;74441;49.470;11.032;2023-12-20T12:26:00;3.97;;;2.57;;
84284;SDS011;74441;49.470;11.032;2023-12-20T12:28:29;3.72;;;2.42;;
84284;SDS011;74441;49.470;11.032;2023-12-20T12:30:59;4.00;;;2.55;;
84284;SDS011;74441;49.470;11.032;2023-12-20T12:33:28;5.07;;;2.75;;
84284;SDS011;74441;49.470;11.032;2023-12-20T12:38:22;3.73;;;2.40;;
84284;SDS011;74441;49.470;11.032;2023-12-20T12:40:47;4.00;;;2.65;;
84284;SDS011;74441;49.470;11.032;2023-12-20T12:43:13;3.87;;;2.30;;
84284;SDS011;74441;49.470;11.032;2023-12-20T12:45:38;4.28;;;2.10;;
84284;SDS011;74441;49.470;11.032;2023-12-20T12:48:04;2.90;;;2.00;;
84284;SDS011;74441;49.470;11.032;2023-12-20T12:50:30;4.13;;;2.10;;
84284;SDS011;74441;49.470;11.032;2023-12-20T12:52:56;6.05;;;3.00;;
84284;SDS011;74441;49.470;11.032;2023-12-20T12:55:22;3.65;;;2.63;;
84284;SDS011;74441;49.470;11.032;2023-12-20T12:57:47;5.28;;;2.22;;
84284;SDS011;74441;49.470;11.032;2023-12-20T13:00:13;4.10;;;2.80;;
84284;SDS011;74441;49.470;11.032;2023-12-20T13:02:39;4.68;;;2.70;;
84284;SDS011;74441;49.470;11.032;2023-12-20T13:05:06;4.40;;;2.20;;
84284;SDS011;74441;49.470;11.032;2023-12-20T13:07:32;3.38;;;2.22;;
84284;SDS011;74441;49.470;11.032;2023-12-20T13:09:58;5.50;;;2.90;;
84284;SDS011;74441;49.470;11.032;2023-12-20T13:12:23;3.27;;;2.07;;
84284;SDS011;74441;49.470;11.032;2023-12-20T13:14:48;3.43;;;2.40;;
84284;SDS011;74441;49.470;11.032;2023-12-20T13:17:14;3.73;;;2.60;;
84284;SDS011;74441;49.470;11.032;2023-12-20T13:19:40;3.30;;;2.00;;
84284;SDS011;74441;49.470;11.032;2023-12-20T13:22:05;4.03;;;2.22;;
84284;SDS011;74441;49.470;11.032;2023-12-20T13:24:31;3.90;;;2.50;;
84284;SDS011;74441;49.470;11.032;2023-12-20T13:26:57;4.82;;;2.50;;
84284;SDS011;74441;49.470;11.032;2023-12-20T13:29:22;4.77;;;3.17;;
84284;SDS011;74441;49.470;11.032;2023-12-20T13:31:49;7.35;;;3.58;;
84284;SDS011;74441;49.470;11.032;2023-12-20T13:34:14;5.57;;;3.63;;
84284;SDS011;74441;49.470;11.032;2023-12-20T13:36:42;4.68;;;3.00;;
84284;SDS011;74441;49.470;11.032;2023-12-20T13:41:35;4.47;;;2.77;;
84284;SDS011;74441;49.470;11.032;2023-12-20T13:44:01;5.50;;;3.63;;
84284;SDS011;74441;49.470;11.032;2023-12-20T13:46:28;4.43;;;2.63;;
84284;SDS011;74441;49.470;11.032;2023-12-20T13:48:54;7.75;;;3.70;;
84284;SDS011;74441;49.470;11.032;2023-12-20T13:51:20;5.22;;;2.83;;
84284;SDS011;74441;49.470;11.032;2023-12-20T13:53:46;3.58;;;2.53;;
84284;SDS011;74441;49.470;11.032;2023-12-20T13:56:11;3.25;;;1.98;;
84284;SDS011;74441;49.470;11.032;2023-12-20T13:58:37;3.70;;;2.30;;
84284;SDS011;74441;49.470;11.032;2023-12-20T14:01:02;3.72;;;2.28;;
84284;SDS011;74441;49.470;11.032;2023-12-20T14:03:27;3.63;;;2.10;;
84284;SDS011;74441;49.470;11.032;2023-12-20T14:05:53;4.60;;;2.40;;
84284;SDS011;74441;49.470;11.032;2023-12-20T14:08:19;5.30;;;2.97;;
84284;SDS011;74441;49.470;11.032;2023-12-20T14:10:45;3.67;;;2.40;;
84284;SDS011;74441;49.470;11.032;2023-12-20T14:13:11;5.15;;;3.22;;
84284;SDS011;74441;49.470;11.032;2023-12-20T14:15:36;4.00;;;2.15;;
84284;SDS011;74441;49.470;11.032;2023-12-20T14:18:05;3.80;;;2.50;;
84284;SDS011;74441;49.470;11.032;2023-12-20T14:20:33;6.03;;;3.25;;
84284;SDS011;74441;49.470;11.032;2023-12-20T14:23:00;4.25;;;2.60;;
84284;SDS011;74441;49.470;11.032;2023-12-20T14:25:26;3.47;;;2.40;;
84284;SDS011;74441;49.470;11.032;2023-12-20T14:27:51;2.63;;;1.80;;
84284;SDS011;74441;49.470;11.032;2023-12-20T14:30:16;3.70;;;1.83;;
84284;SDS011;74441;49.470;11.032;2023-12-20T14:32:42;3.30;;;1.83;;
84284;SDS011;74441;49.470;11.032;2023-12-20T14:35:07;2.85;;;1.67;;
84284;SDS011;74441;49.470;11.032;2023-12-20T14:37:36;3.78;;;2.45;;